sensor_id;sensor_type;location;lat;lon;timestamp;temperature;humidity
72883;DHT22;61017;37.812;-122.286;2023-06-22T00:00:51;16.90;92.00
72883;DHT22;61017;37.812;-122.286;2023-06-22T00:02:22;16.90;92.10
72883;DHT22;61017;37.812;-122.286;2023-06-22T00:03:54;16.90;92.10
72883;DHT22;61017;37.812;-122.286;2023-06-22T00:05:29;16.90;92.10
72883;DHT22;61017;37.812;-122.286;2023-06-22T00:07:00;16.90;92.10
72883;DHT22;61017;37.812;-122.286;2023-06-22T00:08:32;16.90;92.10
72883;DHT22;61017;37.812;-122.286;2023-06-22T00:10:04;16.90;92.10
72883;DHT22;61017;37.812;-122.286;2023-06-22T00:11:36;16.90;92.10
72883;DHT22;61017;37.812;-122.286;2023-06-22T00:13:15;16.90;92.10
72883;DHT22;61017;37.812;-122.286;2023-06-22T00:14:46;16.90;92.10
72883;DHT22;61017;37.812;-122.286;2023-06-22T00:16:18;16.90;92.10
72883;DHT22;61017;37.812;-122.286;2023-06-22T00:17:50;16.90;92.10
72883;DHT22;61017;37.812;-122.286;2023-06-22T00:19:22;16.90;92.10
72883;DHT22;61017;37.812;-122.286;2023-06-22T00:20:57;16.90;92.10
72883;DHT22;61017;37.812;-122.286;2023-06-22T00:22:29;16.90;92.10
72883;DHT22;61017;37.812;-122.286;2023-06-22T00:24:01;16.90;92.00
72883;DHT22;61017;37.812;-122.286;2023-06-22T00:25:39;16.90;92.00
72883;DHT22;61017;37.812;-122.286;2023-06-22T00:27:10;16.90;92.10
72883;DHT22;61017;37.812;-122.286;2023-06-22T00:28:42;16.90;92.10
72883;DHT22;61017;37.812;-122.286;2023-06-22T00:30:15;16.90;92.10
72883;DHT22;61017;37.812;-122.286;2023-06-22T00:31:47;16.90;92.10
72883;DHT22;61017;37.812;-122.286;2023-06-22T00:33:20;16.90;92.10
72883;DHT22;61017;37.812;-122.286;2023-06-22T00:34:52;16.90;92.10
72883;DHT22;61017;37.812;-122.286;2023-06-22T00:36:24;16.90;92.20
72883;DHT22;61017;37.812;-122.286;2023-06-22T00:37:56;16.90;92.20
72883;DHT22;61017;37.812;-122.286;2023-06-22T00:39:28;16.90;92.20
72883;DHT22;61017;37.812;-122.286;2023-06-22T00:40:59;16.90;92.20
72883;DHT22;61017;37.812;-122.286;2023-06-22T00:42:31;16.90;92.20
72883;DHT22;61017;37.812;-122.286;2023-06-22T00:44:03;16.90;92.60
72883;DHT22;61017;37.812;-122.286;2023-06-22T00:45:34;16.90;92.30
72883;DHT22;61017;37.812;-122.286;2023-06-22T00:47:06;16.90;92.20
72883;DHT22;61017;37.812;-122.286;2023-06-22T00:48:38;16.90;92.20
72883;DHT22;61017;37.812;-122.286;2023-06-22T00:50:12;16.90;92.30
72883;DHT22;61017;37.812;-122.286;2023-06-22T00:51:46;16.90;92.30
72883;DHT22;61017;37.812;-122.286;2023-06-22T00:53:18;16.90;92.30
72883;DHT22;61017;37.812;-122.286;2023-06-22T00:54:51;16.90;92.30
72883;DHT22;61017;37.812;-122.286;2023-06-22T00:56:23;16.90;92.30
72883;DHT22;61017;37.812;-122.286;2023-06-22T00:57:58;16.90;92.30
72883;DHT22;61017;37.812;-122.286;2023-06-22T00:59:29;16.90;92.30
72883;DHT22;61017;37.812;-122.286;2023-06-22T01:01:01;16.90;92.30
72883;DHT22;61017;37.812;-122.286;2023-06-22T01:02:33;16.90;92.30
72883;DHT22;61017;37.812;-122.286;2023-06-22T01:04:05;16.90;92.30
72883;DHT22;61017;37.812;-122.286;2023-06-22T01:05:38;16.90;92.30
72883;DHT22;61017;37.812;-122.286;2023-06-22T01:07:33;16.90;92.30
72883;DHT22;61017;37.812;-122.286;2023-06-22T01:09:20;16.90;92.30
72883;DHT22;61017;37.812;-122.286;2023-06-22T01:11:10;16.90;92.40
72883;DHT22;61017;37.812;-122.286;2023-06-22T01:12:52;16.90;92.40
72883;DHT22;61017;37.812;-122.286;2023-06-22T01:16:24;17.00;92.40
72883;DHT22;61017;37.812;-122.286;2023-06-22T01:17:58;16.90;92.40
72883;DHT22;61017;37.812;-122.286;2023-06-22T01:19:47;16.90;92.40
72883;DHT22;61017;37.812;-122.286;2023-06-22T01:21:22;16.90;92.40
72883;DHT22;61017;37.812;-122.286;2023-06-22T01:25:13;16.90;92.40
72883;DHT22;61017;37.812;-122.286;2023-06-22T01:26:57;16.90;92.40
72883;DHT22;61017;37.812;-122.286;2023-06-22T01:28:50;16.90;92.40
72883;DHT22;61017;37.812;-122.286;2023-06-22T01:30:23;17.00;92.40
72883;DHT22;61017;37.812;-122.286;2023-06-22T01:31:56;16.90;92.40
72883;DHT22;61017;37.812;-122.286;2023-06-22T01:33:35;16.90;92.40
72883;DHT22;61017;37.812;-122.286;2023-06-22T01:35:09;16.90;92.40
72883;DHT22;61017;37.812;-122.286;2023-06-22T01:36:42;16.90;92.40
72883;DHT22;61017;37.812;-122.286;2023-06-22T01:38:13;16.90;92.40
72883;DHT22;61017;37.812;-122.286;2023-06-22T01:39:45;17.00;92.50
72883;DHT22;61017;37.812;-122.286;2023-06-22T01:41:24;16.90;92.40
72883;DHT22;61017;37.812;-122.286;2023-06-22T01:42:56;17.00;92.40
72883;DHT22;61017;37.812;-122.286;2023-06-22T01:44:28;16.90;92.40
72883;DHT22;61017;37.812;-122.286;2023-06-22T01:46:03;16.90;92.40
72883;DHT22;61017;37.812;-122.286;2023-06-22T01:47:35;16.90;92.40
72883;DHT22;61017;37.812;-122.286;2023-06-22T01:49:27;16.90;92.50
72883;DHT22;61017;37.812;-122.286;2023-06-22T01:50:59;16.90;92.40
72883;DHT22;61017;37.812;-122.286;2023-06-22T01:52:31;16.90;92.40
72883;DHT22;61017;37.812;-122.286;2023-06-22T01:54:02;16.90;92.40
72883;DHT22;61017;37.812;-122.286;2023-06-22T01:55:34;16.90;92.40
72883;DHT22;61017;37.812;-122.286;2023-06-22T01:57:06;16.90;92.40
72883;DHT22;61017;37.812;-122.286;2023-06-22T02:00:38;16.90;92.40
72883;DHT22;61017;37.812;-122.286;2023-06-22T02:02:13;16.90;92.40
72883;DHT22;61017;37.812;-122.286;2023-06-22T02:04:06;16.90;92.40
72883;DHT22;61017;37.812;-122.286;2023-06-22T02:06:05;16.90;92.50
72883;DHT22;61017;37.812;-122.286;2023-06-22T02:07:44;16.90;92.50
72883;DHT22;61017;37.812;-122.286;2023-06-22T02:09:20;16.90;92.50
72883;DHT22;61017;37.812;-122.286;2023-06-22T02:10:53;17.00;92.50
72883;DHT22;61017;37.812;-122.286;2023-06-22T02:12:27;17.00;92.50
72883;DHT22;61017;37.812;-122.286;2023-06-22T02:13:59;16.90;92.50
72883;DHT22;61017;37.812;-122.286;2023-06-22T02:15:31;16.90;92.50
72883;DHT22;61017;37.812;-122.286;2023-06-22T02:17:04;16.90;92.50
72883;DHT22;61017;37.812;-122.286;2023-06-22T02:18:36;16.90;92.50
72883;DHT22;61017;37.812;-122.286;2023-06-22T02:20:12;16.90;92.50
72883;DHT22;61017;37.812;-122.286;2023-06-22T02:21:47;16.90;92.50
72883;DHT22;61017;37.812;-122.286;2023-06-22T02:23:19;16.90;92.50
72883;DHT22;61017;37.812;-122.286;2023-06-22T02:24:51;16.90;92.50
72883;DHT22;61017;37.812;-122.286;2023-06-22T02:26:25;16.90;92.50
72883;DHT22;61017;37.812;-122.286;2023-06-22T02:27:57;17.00;92.50
72883;DHT22;61017;37.812;-122.286;2023-06-22T02:29:29;16.90;92.50
72883;DHT22;61017;37.812;-122.286;2023-06-22T02:31:00;16.90;92.50
72883;DHT22;61017;37.812;-122.286;2023-06-22T02:32:32;16.90;92.50
72883;DHT22;61017;37.812;-122.286;2023-06-22T02:34:04;16.90;92.50
72883;DHT22;61017;37.812;-122.286;2023-06-22T02:35:35;16.90;92.50
72883;DHT22;61017;37.812;-122.286;2023-06-22T02:37:07;16.90;92.50
72883;DHT22;61017;37.812;-122.286;2023-06-22T02:38:42;16.90;92.80
72883;DHT22;61017;37.812;-122.286;2023-06-22T02:40:13;17.00;92.50
72883;DHT22;61017;37.812;-122.286;2023-06-22T02:41:45;16.90;92.50
72883;DHT22;61017;37.812;-122.286;2023-06-22T02:43:17;16.90;92.50
72883;DHT22;61017;37.812;-122.286;2023-06-22T02:44:48;16.90;92.50
72883;DHT22;61017;37.812;-122.286;2023-06-22T02:46:20;16.90;92.50
72883;DHT22;61017;37.812;-122.286;2023-06-22T02:47:52;16.90;92.50
72883;DHT22;61017;37.812;-122.286;2023-06-22T02:49:23;16.90;92.50
72883;DHT22;61017;37.812;-122.286;2023-06-22T02:50:55;17.00;92.50
72883;DHT22;61017;37.812;-122.286;2023-06-22T02:52:27;17.00;92.50
72883;DHT22;61017;37.812;-122.286;2023-06-22T02:53:58;16.90;92.50
72883;DHT22;61017;37.812;-122.286;2023-06-22T02:55:30;16.90;92.50
72883;DHT22;61017;37.812;-122.286;2023-06-22T02:57:02;17.00;92.60
72883;DHT22;61017;37.812;-122.286;2023-06-22T02:58:33;16.90;92.50
72883;DHT22;61017;37.812;-122.286;2023-06-22T03:00:06;16.90;92.50
72883;DHT22;61017;37.812;-122.286;2023-06-22T03:01:38;16.90;92.50
72883;DHT22;61017;37.812;-122.286;2023-06-22T03:03:09;16.90;92.60
72883;DHT22;61017;37.812;-122.286;2023-06-22T03:04:41;17.00;92.60
72883;DHT22;61017;37.812;-122.286;2023-06-22T03:06:12;16.90;92.50
72883;DHT22;61017;37.812;-122.286;2023-06-22T03:07:44;16.90;92.50
72883;DHT22;61017;37.812;-122.286;2023-06-22T03:09:16;16.90;92.50
72883;DHT22;61017;37.812;-122.286;2023-06-22T03:10:50;16.90;92.50
72883;DHT22;61017;37.812;-122.286;2023-06-22T03:12:22;16.90;92.50
72883;DHT22;61017;37.812;-122.286;2023-06-22T03:13:53;16.90;92.50
72883;DHT22;61017;37.812;-122.286;2023-06-22T03:15:25;17.00;92.60
72883;DHT22;61017;37.812;-122.286;2023-06-22T03:16:56;17.00;92.50
72883;DHT22;61017;37.812;-122.286;2023-06-22T03:18:28;16.90;92.50
72883;DHT22;61017;37.812;-122.286;2023-06-22T03:19:59;16.90;92.50
72883;DHT22;61017;37.812;-122.286;2023-06-22T03:21:31;16.90;92.50
72883;DHT22;61017;37.812;-122.286;2023-06-22T03:23:03;16.90;92.50
72883;DHT22;61017;37.812;-122.286;2023-06-22T03:24:34;16.90;92.50
72883;DHT22;61017;37.812;-122.286;2023-06-22T03:26:06;17.00;92.50
72883;DHT22;61017;37.812;-122.286;2023-06-22T03:27:38;17.00;92.50
72883;DHT22;61017;37.812;-122.286;2023-06-22T03:29:09;16.90;92.50
72883;DHT22;61017;37.812;-122.286;2023-06-22T03:30:41;16.90;92.50
72883;DHT22;61017;37.812;-122.286;2023-06-22T03:32:12;16.90;92.50
72883;DHT22;61017;37.812;-122.286;2023-06-22T03:33:44;16.90;92.50
72883;DHT22;61017;37.812;-122.286;2023-06-22T03:35:16;16.90;92.50
72883;DHT22;61017;37.812;-122.286;2023-06-22T03:36:48;16.90;92.80
72883;DHT22;61017;37.812;-122.286;2023-06-22T03:38:19;16.90;92.50
72883;DHT22;61017;37.812;-122.286;2023-06-22T03:39:51;16.90;92.40
72883;DHT22;61017;37.812;-122.286;2023-06-22T03:41:23;16.90;92.40
72883;DHT22;61017;37.812;-122.286;2023-06-22T03:42:55;17.00;92.50
72883;DHT22;61017;37.812;-122.286;2023-06-22T03:44:26;16.90;92.50
72883;DHT22;61017;37.812;-122.286;2023-06-22T03:45:58;16.90;92.40
72883;DHT22;61017;37.812;-122.286;2023-06-22T03:47:29;16.90;92.40
72883;DHT22;61017;37.812;-122.286;2023-06-22T03:49:01;16.90;92.40
72883;DHT22;61017;37.812;-122.286;2023-06-22T03:50:32;16.90;92.40
72883;DHT22;61017;37.812;-122.286;2023-06-22T03:52:05;16.90;92.40
72883;DHT22;61017;37.812;-122.286;2023-06-22T03:53:36;17.00;92.50
72883;DHT22;61017;37.812;-122.286;2023-06-22T03:55:08;16.90;92.40
72883;DHT22;61017;37.812;-122.286;2023-06-22T03:56:40;17.00;92.40
72883;DHT22;61017;37.812;-122.286;2023-06-22T03:58:11;16.90;92.40
72883;DHT22;61017;37.812;-122.286;2023-06-22T03:59:43;16.90;92.40
72883;DHT22;61017;37.812;-122.286;2023-06-22T04:01:14;16.90;92.40
72883;DHT22;61017;37.812;-122.286;2023-06-22T04:02:46;16.90;92.40
72883;DHT22;61017;37.812;-122.286;2023-06-22T04:04:18;16.90;92.30
72883;DHT22;61017;37.812;-122.286;2023-06-22T04:05:50;16.90;92.40
72883;DHT22;61017;37.812;-122.286;2023-06-22T04:07:21;16.90;92.30
72883;DHT22;61017;37.812;-122.286;2023-06-22T04:08:53;16.90;92.30
72883;DHT22;61017;37.812;-122.286;2023-06-22T04:10:24;16.90;92.30
72883;DHT22;61017;37.812;-122.286;2023-06-22T04:11:56;16.90;92.30
72883;DHT22;61017;37.812;-122.286;2023-06-22T04:13:27;16.90;92.30
72883;DHT22;61017;37.812;-122.286;2023-06-22T04:15:01;16.90;92.30
72883;DHT22;61017;37.812;-122.286;2023-06-22T04:16:33;16.90;92.30
72883;DHT22;61017;37.812;-122.286;2023-06-22T04:18:05;16.90;92.30
72883;DHT22;61017;37.812;-122.286;2023-06-22T04:19:37;16.90;92.30
72883;DHT22;61017;37.812;-122.286;2023-06-22T04:21:10;16.90;92.30
72883;DHT22;61017;37.812;-122.286;2023-06-22T04:22:42;16.90;92.30
72883;DHT22;61017;37.812;-122.286;2023-06-22T04:24:14;16.90;92.20
72883;DHT22;61017;37.812;-122.286;2023-06-22T04:25:45;16.90;92.20
72883;DHT22;61017;37.812;-122.286;2023-06-22T04:27:17;17.00;92.30
72883;DHT22;61017;37.812;-122.286;2023-06-22T04:28:48;17.00;92.30
72883;DHT22;61017;37.812;-122.286;2023-06-22T04:30:20;16.90;92.20
72883;DHT22;61017;37.812;-122.286;2023-06-22T04:31:52;16.90;92.20
72883;DHT22;61017;37.812;-122.286;2023-06-22T04:33:23;16.90;92.20
72883;DHT22;61017;37.812;-122.286;2023-06-22T04:34:55;16.90;92.20
72883;DHT22;61017;37.812;-122.286;2023-06-22T04:36:26;16.90;92.50
72883;DHT22;61017;37.812;-122.286;2023-06-22T04:37:58;16.90;92.20
72883;DHT22;61017;37.812;-122.286;2023-06-22T04:39:30;17.00;92.20
72883;DHT22;61017;37.812;-122.286;2023-06-22T04:41:01;16.90;92.20
72883;DHT22;61017;37.812;-122.286;2023-06-22T04:42:35;16.90;92.20
72883;DHT22;61017;37.812;-122.286;2023-06-22T04:44:06;16.90;92.20
72883;DHT22;61017;37.812;-122.286;2023-06-22T04:45:38;16.90;92.20
72883;DHT22;61017;37.812;-122.286;2023-06-22T04:47:09;16.90;92.20
72883;DHT22;61017;37.812;-122.286;2023-06-22T04:48:41;16.90;92.20
72883;DHT22;61017;37.812;-122.286;2023-06-22T04:50:13;16.90;92.20
72883;DHT22;61017;37.812;-122.286;2023-06-22T04:51:44;16.90;92.20
72883;DHT22;61017;37.812;-122.286;2023-06-22T04:53:16;17.00;92.20
72883;DHT22;61017;37.812;-122.286;2023-06-22T04:54:47;16.90;92.20
72883;DHT22;61017;37.812;-122.286;2023-06-22T04:56:19;16.90;92.20
72883;DHT22;61017;37.812;-122.286;2023-06-22T04:57:50;16.90;92.20
72883;DHT22;61017;37.812;-122.286;2023-06-22T04:59:28;16.90;92.20
72883;DHT22;61017;37.812;-122.286;2023-06-22T05:01:00;16.90;92.20
72883;DHT22;61017;37.812;-122.286;2023-06-22T05:02:32;16.90;92.20
72883;DHT22;61017;37.812;-122.286;2023-06-22T05:04:03;16.90;92.10
72883;DHT22;61017;37.812;-122.286;2023-06-22T05:05:35;16.90;92.20
72883;DHT22;61017;37.812;-122.286;2023-06-22T05:07:06;16.90;92.10
72883;DHT22;61017;37.812;-122.286;2023-06-22T05:08:41;16.90;92.10
72883;DHT22;61017;37.812;-122.286;2023-06-22T05:10:13;16.90;92.10
72883;DHT22;61017;37.812;-122.286;2023-06-22T05:11:45;16.90;92.10
72883;DHT22;61017;37.812;-122.286;2023-06-22T05:13:17;16.90;92.10
72883;DHT22;61017;37.812;-122.286;2023-06-22T05:14:48;16.90;92.10
72883;DHT22;61017;37.812;-122.286;2023-06-22T05:16:20;16.90;92.10
72883;DHT22;61017;37.812;-122.286;2023-06-22T05:17:52;16.90;92.10
72883;DHT22;61017;37.812;-122.286;2023-06-22T05:19:24;16.90;92.10
72883;DHT22;61017;37.812;-122.286;2023-06-22T05:20:56;16.90;92.10
72883;DHT22;61017;37.812;-122.286;2023-06-22T05:22:28;16.90;92.10
72883;DHT22;61017;37.812;-122.286;2023-06-22T05:23:59;17.00;92.10
72883;DHT22;61017;37.812;-122.286;2023-06-22T05:25:31;16.90;92.10
72883;DHT22;61017;37.812;-122.286;2023-06-22T05:27:03;16.90;92.10
72883;DHT22;61017;37.812;-122.286;2023-06-22T05:28:34;16.90;92.10
72883;DHT22;61017;37.812;-122.286;2023-06-22T05:30:07;16.90;92.10
72883;DHT22;61017;37.812;-122.286;2023-06-22T05:31:39;17.00;92.10
72883;DHT22;61017;37.812;-122.286;2023-06-22T05:33:11;17.00;92.10
72883;DHT22;61017;37.812;-122.286;2023-06-22T05:34:42;16.90;92.10
72883;DHT22;61017;37.812;-122.286;2023-06-22T05:36:14;16.90;92.00
72883;DHT22;61017;37.812;-122.286;2023-06-22T05:37:46;16.90;92.00
72883;DHT22;61017;37.812;-122.286;2023-06-22T05:39:17;16.90;92.00
72883;DHT22;61017;37.812;-122.286;2023-06-22T05:40:49;16.90;92.00
72883;DHT22;61017;37.812;-122.286;2023-06-22T05:42:21;16.90;92.10
72883;DHT22;61017;37.812;-122.286;2023-06-22T05:43:53;16.90;92.00
72883;DHT22;61017;37.812;-122.286;2023-06-22T05:45:24;16.90;92.10
72883;DHT22;61017;37.812;-122.286;2023-06-22T05:46:56;16.90;92.10
72883;DHT22;61017;37.812;-122.286;2023-06-22T05:48:27;16.90;92.00
72883;DHT22;61017;37.812;-122.286;2023-06-22T05:49:59;16.90;92.40
72883;DHT22;61017;37.812;-122.286;2023-06-22T05:51:30;16.90;92.10
72883;DHT22;61017;37.812;-122.286;2023-06-22T05:53:02;16.90;92.10
72883;DHT22;61017;37.812;-122.286;2023-06-22T05:54:33;16.90;92.10
72883;DHT22;61017;37.812;-122.286;2023-06-22T05:56:25;16.90;92.10
72883;DHT22;61017;37.812;-122.286;2023-06-22T05:57:57;16.90;92.10
72883;DHT22;61017;37.812;-122.286;2023-06-22T05:59:31;16.90;92.10
72883;DHT22;61017;37.812;-122.286;2023-06-22T06:01:03;16.90;92.10
72883;DHT22;61017;37.812;-122.286;2023-06-22T06:02:35;16.90;92.10
72883;DHT22;61017;37.812;-122.286;2023-06-22T06:04:07;16.90;92.10
72883;DHT22;61017;37.812;-122.286;2023-06-22T06:05:38;16.90;92.00
72883;DHT22;61017;37.812;-122.286;2023-06-22T06:07:10;16.90;92.10
72883;DHT22;61017;37.812;-122.286;2023-06-22T06:08:42;16.90;92.10
72883;DHT22;61017;37.812;-122.286;2023-06-22T06:10:13;16.90;92.10
72883;DHT22;61017;37.812;-122.286;2023-06-22T06:11:45;16.90;92.10
72883;DHT22;61017;37.812;-122.286;2023-06-22T06:13:16;16.90;92.10
72883;DHT22;61017;37.812;-122.286;2023-06-22T06:14:48;16.90;92.00
72883;DHT22;61017;37.812;-122.286;2023-06-22T06:16:19;16.90;92.00
72883;DHT22;61017;37.812;-122.286;2023-06-22T06:17:52;16.90;92.00
72883;DHT22;61017;37.812;-122.286;2023-06-22T06:19:24;16.90;92.00
72883;DHT22;61017;37.812;-122.286;2023-06-22T06:20:55;16.90;92.00
72883;DHT22;61017;37.812;-122.286;2023-06-22T06:22:27;16.90;92.00
72883;DHT22;61017;37.812;-122.286;2023-06-22T06:23:58;16.90;92.00
72883;DHT22;61017;37.812;-122.286;2023-06-22T06:25:30;16.90;92.00
72883;DHT22;61017;37.812;-122.286;2023-06-22T06:27:01;16.90;92.00
72883;DHT22;61017;37.812;-122.286;2023-06-22T06:28:34;16.90;92.00
72883;DHT22;61017;37.812;-122.286;2023-06-22T06:30:06;16.90;92.00
72883;DHT22;61017;37.812;-122.286;2023-06-22T06:31:38;16.90;92.00
72883;DHT22;61017;37.812;-122.286;2023-06-22T06:33:09;16.90;92.00
72883;DHT22;61017;37.812;-122.286;2023-06-22T06:34:41;16.90;92.00
72883;DHT22;61017;37.812;-122.286;2023-06-22T06:36:12;16.90;92.10
72883;DHT22;61017;37.812;-122.286;2023-06-22T06:37:45;16.90;92.00
72883;DHT22;61017;37.812;-122.286;2023-06-22T06:39:17;16.90;92.00
72883;DHT22;61017;37.812;-122.286;2023-06-22T06:40:49;16.90;92.00
72883;DHT22;61017;37.812;-122.286;2023-06-22T06:42:41;16.90;92.10
72883;DHT22;61017;37.812;-122.286;2023-06-22T06:44:13;16.90;92.00
72883;DHT22;61017;37.812;-122.286;2023-06-22T06:45:45;16.90;92.00
72883;DHT22;61017;37.812;-122.286;2023-06-22T06:47:16;16.90;92.00
72883;DHT22;61017;37.812;-122.286;2023-06-22T06:48:48;16.90;92.00
72883;DHT22;61017;37.812;-122.286;2023-06-22T06:50:20;16.90;91.90
72883;DHT22;61017;37.812;-122.286;2023-06-22T06:51:52;16.90;91.90
72883;DHT22;61017;37.812;-122.286;2023-06-22T06:53:23;16.90;91.80
72883;DHT22;61017;37.812;-122.286;2023-06-22T06:54:55;16.90;91.80
72883;DHT22;61017;37.812;-122.286;2023-06-22T06:56:26;16.90;91.90
72883;DHT22;61017;37.812;-122.286;2023-06-22T06:57:58;16.90;91.90
72883;DHT22;61017;37.812;-122.286;2023-06-22T06:59:29;16.90;91.90
72883;DHT22;61017;37.812;-122.286;2023-06-22T07:01:01;16.90;91.90
72883;DHT22;61017;37.812;-122.286;2023-06-22T07:02:32;16.90;91.90
72883;DHT22;61017;37.812;-122.286;2023-06-22T07:04:05;16.90;91.80
72883;DHT22;61017;37.812;-122.286;2023-06-22T07:05:37;16.90;91.90
72883;DHT22;61017;37.812;-122.286;2023-06-22T07:07:08;16.90;91.90
72883;DHT22;61017;37.812;-122.286;2023-06-22T07:08:40;16.90;91.80
72883;DHT22;61017;37.812;-122.286;2023-06-22T07:10:12;16.90;91.80
72883;DHT22;61017;37.812;-122.286;2023-06-22T07:11:43;16.90;91.80
72883;DHT22;61017;37.812;-122.286;2023-06-22T07:13:15;16.90;91.80
72883;DHT22;61017;37.812;-122.286;2023-06-22T07:14:46;16.90;91.80
72883;DHT22;61017;37.812;-122.286;2023-06-22T07:16:18;16.90;91.80
72883;DHT22;61017;37.812;-122.286;2023-06-22T07:17:49;16.90;91.80
72883;DHT22;61017;37.812;-122.286;2023-06-22T07:19:32;16.90;92.10
72883;DHT22;61017;37.812;-122.286;2023-06-22T07:21:04;16.90;91.90
72883;DHT22;61017;37.812;-122.286;2023-06-22T07:22:36;16.90;91.70
72883;DHT22;61017;37.812;-122.286;2023-06-22T07:24:07;16.90;91.70
72883;DHT22;61017;37.812;-122.286;2023-06-22T07:25:39;16.90;91.60
72883;DHT22;61017;37.812;-122.286;2023-06-22T07:27:10;16.90;91.60
72883;DHT22;61017;37.812;-122.286;2023-06-22T07:28:42;16.90;91.60
72883;DHT22;61017;37.812;-122.286;2023-06-22T07:30:24;16.90;91.70
72883;DHT22;61017;37.812;-122.286;2023-06-22T07:31:56;16.90;91.60
72883;DHT22;61017;37.812;-122.286;2023-06-22T07:33:28;16.90;91.60
72883;DHT22;61017;37.812;-122.286;2023-06-22T07:35:05;16.90;91.70
72883;DHT22;61017;37.812;-122.286;2023-06-22T07:36:37;16.90;91.70
72883;DHT22;61017;37.812;-122.286;2023-06-22T07:38:09;16.90;91.60
72883;DHT22;61017;37.812;-122.286;2023-06-22T07:39:43;16.90;91.60
72883;DHT22;61017;37.812;-122.286;2023-06-22T07:41:15;16.90;91.60
72883;DHT22;61017;37.812;-122.286;2023-06-22T07:42:47;16.90;91.60
72883;DHT22;61017;37.812;-122.286;2023-06-22T07:44:18;16.90;91.60
72883;DHT22;61017;37.812;-122.286;2023-06-22T07:45:50;16.90;91.60
72883;DHT22;61017;37.812;-122.286;2023-06-22T07:47:22;16.90;91.60
72883;DHT22;61017;37.812;-122.286;2023-06-22T07:48:54;16.90;91.60
72883;DHT22;61017;37.812;-122.286;2023-06-22T07:50:26;16.90;91.60
72883;DHT22;61017;37.812;-122.286;2023-06-22T07:51:57;16.90;91.60
72883;DHT22;61017;37.812;-122.286;2023-06-22T07:53:29;16.90;91.70
72883;DHT22;61017;37.812;-122.286;2023-06-22T07:55:01;16.90;91.60
72883;DHT22;61017;37.812;-122.286;2023-06-22T07:56:32;16.90;91.60
72883;DHT22;61017;37.812;-122.286;2023-06-22T07:58:04;16.90;91.60
72883;DHT22;61017;37.812;-122.286;2023-06-22T07:59:36;16.90;91.60
72883;DHT22;61017;37.812;-122.286;2023-06-22T08:01:07;16.90;91.60
72883;DHT22;61017;37.812;-122.286;2023-06-22T08:02:40;16.90;91.90
72883;DHT22;61017;37.812;-122.286;2023-06-22T08:04:12;16.90;91.60
72883;DHT22;61017;37.812;-122.286;2023-06-22T08:05:43;16.90;91.60
72883;DHT22;61017;37.812;-122.286;2023-06-22T08:07:15;16.90;91.50
72883;DHT22;61017;37.812;-122.286;2023-06-22T08:08:46;16.90;91.50
72883;DHT22;61017;37.812;-122.286;2023-06-22T08:10:18;16.90;91.50
72883;DHT22;61017;37.812;-122.286;2023-06-22T08:11:50;16.90;91.50
72883;DHT22;61017;37.812;-122.286;2023-06-22T08:13:22;16.90;91.50
72883;DHT22;61017;37.812;-122.286;2023-06-22T08:14:53;16.90;91.60
72883;DHT22;61017;37.812;-122.286;2023-06-22T08:16:25;16.90;91.50
72883;DHT22;61017;37.812;-122.286;2023-06-22T08:17:56;16.90;91.50
72883;DHT22;61017;37.812;-122.286;2023-06-22T08:19:28;16.90;91.50
72883;DHT22;61017;37.812;-122.286;2023-06-22T08:21:00;16.90;91.50
72883;DHT22;61017;37.812;-122.286;2023-06-22T08:22:31;16.90;91.50
72883;DHT22;61017;37.812;-122.286;2023-06-22T08:24:04;16.80;91.50
72883;DHT22;61017;37.812;-122.286;2023-06-22T08:25:36;16.90;91.50
72883;DHT22;61017;37.812;-122.286;2023-06-22T08:27:07;16.90;91.50
72883;DHT22;61017;37.812;-122.286;2023-06-22T08:28:39;16.80;91.40
72883;DHT22;61017;37.812;-122.286;2023-06-22T08:30:11;16.90;91.40
72883;DHT22;61017;37.812;-122.286;2023-06-22T08:31:43;16.80;91.40
72883;DHT22;61017;37.812;-122.286;2023-06-22T08:33:14;16.90;91.50
72883;DHT22;61017;37.812;-122.286;2023-06-22T08:34:46;16.80;91.40
72883;DHT22;61017;37.812;-122.286;2023-06-22T08:36:17;16.80;91.40
72883;DHT22;61017;37.812;-122.286;2023-06-22T08:37:50;16.90;91.40
72883;DHT22;61017;37.812;-122.286;2023-06-22T08:39:21;16.80;91.40
72883;DHT22;61017;37.812;-122.286;2023-06-22T08:40:53;16.80;91.40
72883;DHT22;61017;37.812;-122.286;2023-06-22T08:42:24;16.80;91.30
72883;DHT22;61017;37.812;-122.286;2023-06-22T08:43:56;16.80;91.30
72883;DHT22;61017;37.812;-122.286;2023-06-22T08:45:27;16.80;91.30
72883;DHT22;61017;37.812;-122.286;2023-06-22T08:46:59;16.90;91.40
72883;DHT22;61017;37.812;-122.286;2023-06-22T08:48:31;16.80;91.30
72883;DHT22;61017;37.812;-122.286;2023-06-22T08:50:02;16.80;91.30
72883;DHT22;61017;37.812;-122.286;2023-06-22T08:51:34;16.80;91.30
72883;DHT22;61017;37.812;-122.286;2023-06-22T08:53:06;16.80;91.30
72883;DHT22;61017;37.812;-122.286;2023-06-22T08:54:37;16.80;91.30
72883;DHT22;61017;37.812;-122.286;2023-06-22T08:56:09;16.90;91.40
72883;DHT22;61017;37.812;-122.286;2023-06-22T08:57:40;16.80;91.30
72883;DHT22;61017;37.812;-122.286;2023-06-22T08:59:12;16.80;91.70
72883;DHT22;61017;37.812;-122.286;2023-06-22T09:00:44;16.80;91.30
72883;DHT22;61017;37.812;-122.286;2023-06-22T09:02:16;16.80;91.30
72883;DHT22;61017;37.812;-122.286;2023-06-22T09:03:47;16.80;91.30
72883;DHT22;61017;37.812;-122.286;2023-06-22T09:05:19;16.80;91.30
72883;DHT22;61017;37.812;-122.286;2023-06-22T09:06:51;16.80;91.30
72883;DHT22;61017;37.812;-122.286;2023-06-22T09:08:22;16.80;91.30
72883;DHT22;61017;37.812;-122.286;2023-06-22T09:09:55;16.80;91.30
72883;DHT22;61017;37.812;-122.286;2023-06-22T09:11:26;16.80;91.20
72883;DHT22;61017;37.812;-122.286;2023-06-22T09:12:58;16.80;91.20
72883;DHT22;61017;37.812;-122.286;2023-06-22T09:14:29;16.90;91.20
72883;DHT22;61017;37.812;-122.286;2023-06-22T09:16:01;16.80;91.20
72883;DHT22;61017;37.812;-122.286;2023-06-22T09:17:33;16.80;91.20
72883;DHT22;61017;37.812;-122.286;2023-06-22T09:19:05;16.90;91.20
72883;DHT22;61017;37.812;-122.286;2023-06-22T09:20:36;16.80;91.20
72883;DHT22;61017;37.812;-122.286;2023-06-22T09:22:08;16.80;91.20
72883;DHT22;61017;37.812;-122.286;2023-06-22T09:23:39;16.80;91.20
72883;DHT22;61017;37.812;-122.286;2023-06-22T09:25:11;16.80;91.20